Time;durP1;ratioP1;P1;durP2;ratioP2;P2;SDS_P1;SDS_P2;PMS_P1;PMS_P2;Temp;Humidity;BMP_temperature;BMP_pressure;BME280_temperature;BME280_humidity;BME280_pressure;Samples;Min_cycle;Max_cycle;Signal;HPM_P1;HPM_P2
2023/07/19 00:04:42;;;;;;;;;;;;;;;25.74;45.01;95481.66;10452255;28;2274;-71
2023/07/19 00:09:42;;;;;;;;;;;;;;;25.75;44.99;95491.22;10449671;28;1988;-71
2023/07/19 00:14:42;;;;;;;;;;;;;;;25.70;45.19;95481.53;10449762;28;1822;-71
2023/07/19 00:19:43;;;;;;;;;;;;;;;25.71;45.20;95479.66;10451705;28;1906;-71
2023/07/19 00:24:43;;;;;;;;;;;;;;;25.71;45.01;95464.50;10451750;28;1929;-71
2023/07/19 00:29:43;;;;;;;;;;;;;;;25.70;45.10;95484.19;10433619;28;2132;-71
2023/07/19 00:34:45;;;;;;;;;;;;;;;25.69;45.06;95490.59;10447808;28;1927;-72
2023/07/19 00:39:45;;;;;;;;;;;;;;;25.71;45.00;95490.28;10449316;28;5086;-72
2023/07/19 00:44:46;;;;;;;;;;;;;;;25.68;45.08;95491.69;10438873;28;1917;-73
2023/07/19 00:49:46;;;;;;;;;;;;;;;25.68;45.16;95467.00;10452580;28;1978;-72
2023/07/19 00:54:46;;;;;;;;;;;;;;;25.68;45.24;95477.63;10415265;28;1999;-72
2023/07/19 00:59:46;;;;;;;;;;;;;;;25.68;45.34;95478.41;10462357;28;2456;-71
2023/07/19 01:04:47;;;;;;;;;;;;;;;25.67;45.12;95482.16;10447267;28;1917;-72
2023/07/19 01:09:48;;;;;;;;;;;;;;;25.68;45.34;95485.56;10445661;28;2015;-72
2023/07/19 01:14:49;;;;;;;;;;;;;;;25.64;45.53;95477.47;10447702;28;1951;-72
2023/07/19 01:19:49;;;;;;;;;;;;;;;25.65;45.63;95499.50;10444871;28;2246;-72
2023/07/19 01:24:49;;;;;;;;;;;;;;;25.56;45.92;95502.13;10442750;28;1978;-72
2023/07/19 01:29:50;;;;;;;;;;;;;;;25.54;45.81;95487.59;10446716;28;2057;-71
2023/07/19 01:34:50;;;;;;;;;;;;;;;25.51;46.09;95482.94;10447746;28;1940;-72
2023/07/19 01:39:50;;;;;;;;;;;;;;;25.44;46.12;95483.38;10445112;28;5034;-72
2023/07/19 01:44:50;;;;;;;;;;;;;;;25.46;46.05;95456.53;10446349;28;1936;-72
2023/07/19 01:49:51;;;;;;;;;;;;;;;25.45;46.08;95474.31;10446177;28;2016;-71
2023/07/19 01:54:51;;;;;;;;;;;;;;;25.44;46.11;95478.09;10450953;28;2284;-71
2023/07/19 01:59:51;;;;;;;;;;;;;;;25.43;46.10;95475.75;10452582;28;2064;-71
2023/07/19 02:04:52;;;;;;;;;;;;;;;25.44;46.14;95470.13;10444149;28;1972;-71
2023/07/19 02:09:52;;;;;;;;;;;;;;;25.43;46.27;95475.75;10443718;28;1916;-71
2023/07/19 02:14:55;;;;;;;;;;;;;;;25.42;46.07;95482.13;10445944;28;1923;-71
2023/07/19 02:19:55;;;;;;;;;;;;;;;25.40;46.22;95508.16;10443134;28;1983;-72
2023/07/19 02:24:56;;;;;;;;;;;;;;;25.38;46.28;95505.81;10443725;28;1951;-72
2023/07/19 02:29:56;;;;;;;;;;;;;;;25.38;46.31;95495.22;10442265;28;1953;-71
2023/07/19 02:34:56;;;;;;;;;;;;;;;25.34;46.47;95488.19;10443447;28;1852;-72
2023/07/19 02:39:56;;;;;;;;;;;;;;;25.34;46.35;95483.66;10445113;28;5155;-71
2023/07/19 02:44:57;;;;;;;;;;;;;;;25.35;46.40;95479.91;10442930;28;1920;-71
2023/07/19 02:49:57;;;;;;;;;;;;;;;25.32;46.61;95479.75;10442131;28;2040;-72
2023/07/19 02:54:57;;;;;;;;;;;;;;;25.29;46.79;95467.88;10443383;28;2291;-73
2023/07/19 02:59:57;;;;;;;;;;;;;;;25.31;46.79;95456.94;10443493;28;1971;-72
2023/07/19 03:04:58;;;;;;;;;;;;;;;25.31;46.83;95476.31;10449729;28;1944;-73
2023/07/19 03:09:58;;;;;;;;;;;;;;;25.29;46.90;95462.56;10451693;28;2079;-72
2023/07/19 03:14:58;;;;;;;;;;;;;;;25.26;46.98;95471.16;10452067;28;2276;-71
2023/07/19 03:19:59;;;;;;;;;;;;;;;25.28;46.91;95473.50;10452206;28;1957;-72
2023/07/19 03:24:59;;;;;;;;;;;;;;;25.24;47.21;95468.03;10451662;28;2197;-72
2023/07/19 03:30:00;;;;;;;;;;;;;;;25.24;47.14;95462.72;10449802;28;1971;-71
2023/07/19 03:35:00;;;;;;;;;;;;;;;25.21;47.31;95466.00;10442983;28;1935;-72
2023/07/19 03:40:00;;;;;;;;;;;;;;;25.22;47.46;95464.91;10468133;28;5099;-71
2023/07/19 03:45:00;;;;;;;;;;;;;;;25.21;47.50;95468.66;10452771;28;1928;-72
2023/07/19 03:50:01;;;;;;;;;;;;;;;25.22;47.70;95464.91;10449477;28;2380;-71
2023/07/19 03:55:02;;;;;;;;;;;;;;;25.21;47.53;95449.28;10454651;28;1974;-72
2023/07/19 04:00:03;;;;;;;;;;;;;;;25.19;47.60;95446.94;10450561;28;2097;-71
2023/07/19 04:05:04;;;;;;;;;;;;;;;25.21;47.65;95454.59;10452124;28;1902;-72
2023/07/19 04:10:04;;;;;;;;;;;;;;;25.21;47.62;95439.47;10447430;28;1884;-71
2023/07/19 04:15:05;;;;;;;;;;;;;;;25.23;47.77;95424.03;10446357;28;1955;-71
2023/07/19 04:20:06;;;;;;;;;;;;;;;25.24;47.72;95414.19;10445818;28;2001;-72
2023/07/19 04:25:07;;;;;;;;;;;;;;;25.23;47.70;95439.16;10447485;28;1963;-72
2023/07/19 04:30:07;;;;;;;;;;;;;;;25.23;47.80;95428.53;10447112;28;1910;-72
2023/07/19 04:35:08;;;;;;;;;;;;;;;25.24;47.98;95427.47;10446001;28;1983;-72
2023/07/19 04:40:09;;;;;;;;;;;;;;;25.22;47.90;95435.72;10451335;28;5072;-72
2023/07/19 04:45:09;;;;;;;;;;;;;;;25.22;47.91;95438.38;10452920;28;2006;-71
2023/07/19 04:50:10;;;;;;;;;;;;;;;25.22;48.18;95446.34;10453192;28;1963;-70
2023/07/19 04:55:10;;;;;;;;;;;;;;;25.20;48.31;95453.84;10448917;28;1964;-71
2023/07/19 05:00:11;;;;;;;;;;;;;;;25.18;48.20;95458.66;10454165;28;1971;-72
2023/07/19 05:05:12;;;;;;;;;;;;;;;25.19;48.56;95459.44;10446431;28;2081;-72
2023/07/19 05:10:12;;;;;;;;;;;;;;;25.20;48.34;95461.78;10450284;28;2211;-72
2023/07/19 05:15:12;;;;;;;;;;;;;;;25.23;48.51;95450.53;10449859;28;1893;-72
2023/07/19 05:20:13;;;;;;;;;;;;;;;25.26;48.43;95470.38;10429702;28;2026;-73
2023/07/19 05:25:13;;;;;;;;;;;;;;;25.27;48.44;95485.19;10448585;28;2149;-71
2023/07/19 05:30:13;;;;;;;;;;;;;;;25.27;48.41;95487.84;10444058;28;1987;-72
2023/07/19 05:35:14;;;;;;;;;;;;;;;25.29;48.46;95489.09;10457141;28;1951;-72
2023/07/19 05:40:15;;;;;;;;;;;;;;;25.30;48.35;95493.34;10444615;28;5073;-72
2023/07/19 05:45:15;;;;;;;;;;;;;;;25.32;48.04;95485.06;10449311;28;1902;-69
2023/07/19 05:50:15;;;;;;;;;;;;;;;25.32;48.40;95469.94;10449464;28;1937;-65
2023/07/19 05:55:16;;;;;;;;;;;;;;;25.35;48.36;95465.88;10453373;28;1943;-71
2023/07/19 06:00:24;;;;;;;;;;;;;;;25.12;49.69;95472.38;10443290;28;1968;-73
2023/07/19 06:05:25;;;;;;;;;;;;;;;24.96;50.41;95488.72;10446821;28;1963;-76
2023/07/19 06:10:26;;;;;;;;;;;;;;;24.89;50.73;95503.50;10457176;28;1940;-74
2023/07/19 06:15:26;;;;;;;;;;;;;;;24.74;50.92;95506.56;10443620;28;1833;-73
2023/07/19 06:20:27;;;;;;;;;;;;;;;24.50;52.19;95514.06;10449953;28;2184;-74
2023/07/19 06:25:27;;;;;;;;;;;;;;;24.55;52.01;95498.00;10447146;28;1955;-73
2023/07/19 06:30:27;;;;;;;;;;;;;;;24.63;51.78;95503.34;10446230;28;1934;-73
2023/07/19 06:35:27;;;;;;;;;;;;;;;24.49;52.22;95510.63;10444791;28;1955;-74
2023/07/19 06:40:28;;;;;;;;;;;;;;;24.47;52.57;95512.00;10462169;28;4989;-74
2023/07/19 06:45:28;;;;;;;;;;;;;;;24.38;52.83;95504.00;10447080;28;1974;-72
2023/07/19 06:50:28;;;;;;;;;;;;;;;24.38;52.88;95513.84;10457878;28;1983;-73
2023/07/19 06:55:29;;;;;;;;;;;;;;;24.64;52.04;95507.59;10456615;28;1860;-73
2023/07/19 07:00:29;;;;;;;;;;;;;;;24.55;52.73;95519.22;10469215;28;1968;-74
2023/07/19 07:05:30;;;;;;;;;;;;;;;24.45;52.81;95528.22;10449949;28;2050;-74
2023/07/19 07:10:30;;;;;;;;;;;;;;;24.41;53.01;95539.72;10457240;28;1975;-74
2023/07/19 07:15:31;;;;;;;;;;;;;;;24.52;52.66;95543.69;10452308;28;1967;-75
2023/07/19 07:20:33;;;;;;;;;;;;;;;24.45;52.91;95545.97;10452052;28;2016;-73
2023/07/19 07:25:34;;;;;;;;;;;;;;;24.61;52.61;95557.75;10468295;28;2029;-73
2023/07/19 07:30:36;;;;;;;;;;;;;;;24.59;52.83;95554.63;10454567;28;1955;-74
2023/07/19 07:35:36;;;;;;;;;;;;;;;24.62;52.31;95556.69;10450989;28;2261;-73
2023/07/19 07:40:36;;;;;;;;;;;;;;;24.65;52.30;95554.19;10453583;28;1980;-73
2023/07/19 07:45:37;;;;;;;;;;;;;;;24.77;52.36;95543.84;10451274;28;1975;-73
2023/07/19 07:50:37;;;;;;;;;;;;;;;24.84;52.26;95535.44;10452751;28;1958;-74
2023/07/19 07:55:37;;;;;;;;;;;;;;;24.87;51.72;95534.84;10452372;28;1900;-73
2023/07/19 08:00:38;;;;;;;;;;;;;;;24.93;51.58;95530.97;10450731;28;2182;-73
2023/07/19 08:05:38;;;;;;;;;;;;;;;25.04;51.33;95527.72;10449854;28;1942;-72
2023/07/19 08:10:39;;;;;;;;;;;;;;;24.97;50.58;95534.56;10453952;28;2045;-73
2023/07/19 08:15:39;;;;;;;;;;;;;;;25.05;49.98;95533.81;10448120;28;2086;-72
2023/07/19 08:20:39;;;;;;;;;;;;;;;25.11;49.40;95527.28;10452915;28;1990;-72
2023/07/19 08:25:40;;;;;;;;;;;;;;;25.15;48.54;95514.19;10448286;28;1986;-71
2023/07/19 08:30:40;;;;;;;;;;;;;;;25.12;47.17;95497.03;10450204;28;2260;-71
2023/07/19 08:35:42;;;;;;;;;;;;;;;25.05;46.09;95486.09;10451175;28;1950;-72
2023/07/19 08:40:44;;;;;;;;;;;;;;;25.15;46.91;95501.72;10449930;28;1918;-72
2023/07/19 08:45:44;;;;;;;;;;;;;;;25.14;46.86;95494.84;10467184;28;1959;-73
2023/07/19 08:50:45;;;;;;;;;;;;;;;25.12;45.94;95494.38;10452975;28;1959;-72
2023/07/19 08:55:45;;;;;;;;;;;;;;;25.15;45.58;95488.44;10434512;28;1926;-71
2023/07/19 09:00:46;;;;;;;;;;;;;;;25.16;44.59;95495.34;10453220;28;2004;-73
2023/07/19 09:05:46;;;;;;;;;;;;;;;25.21;44.82;95491.72;10448382;28;2186;-71
2023/07/19 09:10:46;;;;;;;;;;;;;;;25.25;45.21;95498.78;10449794;28;1919;-74
2023/07/19 09:15:47;;;;;;;;;;;;;;;25.29;46.05;95504.22;10448947;28;2106;-76
2023/07/19 09:20:47;;;;;;;;;;;;;;;25.31;46.17;95517.97;10452184;28;2137;-75
2023/07/19 09:25:57;;;;;;;;;;;;;;;25.32;46.35;95515.03;10444113;28;2010;-75
2023/07/19 09:31:06;;;;;;;;;;;;;;;25.34;46.47;95526.13;10447780;28;2045;-75
2023/07/19 09:36:06;;;;;;;;;;;;;;;25.38;46.44;95526.25;10451251;28;2107;-75
2023/07/19 09:41:06;;;;;;;;;;;;;;;25.38;46.46;95524.41;10453783;28;5038;-75
2023/07/19 09:46:07;;;;;;;;;;;;;;;25.39;46.49;95533.91;10451791;28;2036;-76
2023/07/19 09:51:07;;;;;;;;;;;;;;;25.41;46.49;95531.75;10444941;28;2110;-75
2023/07/19 09:56:07;;;;;;;;;;;;;;;25.41;46.61;95537.06;10447310;28;2060;-76
2023/07/19 10:01:07;;;;;;;;;;;;;;;25.42;46.29;95528.03;10462034;28;1960;-76
2023/07/19 10:06:08;;;;;;;;;;;;;;;25.43;46.43;95524.28;10458905;28;1931;-75
2023/07/19 10:11:20;;;;;;;;;;;;;;;25.45;46.65;95513.38;10451424;28;1948;-75
2023/07/19 10:16:24;;;;;;;;;;;;;;;25.44;46.35;95512.56;10459381;28;2052;-76
2023/07/19 10:21:25;;;;;;;;;;;;;;;25.46;46.63;95502.44;10451569;28;1971;-76
2023/07/19 10:26:29;;;;;;;;;;;;;;;25.49;46.73;95498.38;10459263;28;1954;-76
2023/07/19 10:31:30;;;;;;;;;;;;;;;25.49;47.00;95496.50;10453456;28;2018;-75
2023/07/19 10:36:30;;;;;;;;;;;;;;;25.51;46.69;95485.59;10453164;28;1959;-76
2023/07/19 10:41:30;;;;;;;;;;;;;;;25.52;46.59;95479.16;10450791;28;2071;-73
2023/07/19 10:46:31;;;;;;;;;;;;;;;25.52;46.67;95477.31;10445927;28;2066;-73
2023/07/19 10:51:31;;;;;;;;;;;;;;;25.53;46.53;95468.22;10445570;28;2018;-74
2023/07/19 10:56:32;;;;;;;;;;;;;;;25.53;46.64;95460.28;10444005;28;2265;-75
2023/07/19 11:01:33;;;;;;;;;;;;;;;25.54;46.81;95475.13;10440902;28;1971;-73
2023/07/19 11:06:33;;;;;;;;;;;;;;;25.55;46.70;95458.13;10459219;28;1920;-73
2023/07/19 11:11:34;;;;;;;;;;;;;;;25.57;46.79;95455.16;10449306;28;1994;-74
2023/07/19 11:16:34;;;;;;;;;;;;;;;25.58;46.60;95446.06;10459434;28;2102;-75
2023/07/19 11:21:35;;;;;;;;;;;;;;;25.60;46.55;95435.94;10444669;28;2264;-75
2023/07/19 11:26:49;;;;;;;;;;;;;;;25.61;46.73;95450.78;10442683;28;1991;-75
2023/07/19 11:31:49;;;;;;;;;;;;;;;25.61;46.72;95440.16;10452595;28;2106;-73
2023/07/19 11:36:50;;;;;;;;;;;;;;;25.62;46.90;95445.13;10451279;28;2120;-74
2023/07/19 11:41:50;;;;;;;;;;;;;;;25.63;46.84;95430.78;10451683;28;5088;-73
2023/07/19 11:46:51;;;;;;;;;;;;;;;25.64;46.71;95427.03;10449215;28;1943;-73
2023/07/19 11:51:52;;;;;;;;;;;;;;;25.65;46.78;95415.34;10457064;28;2165;-73
2023/07/19 11:56:52;;;;;;;;;;;;;;;25.65;46.73;95423.28;10451090;28;2014;-73
2023/07/19 12:01:54;;;;;;;;;;;;;;;25.66;46.73;95406.25;10452761;28;1974;-75
2023/07/19 12:06:54;;;;;;;;;;;;;;;25.67;46.48;95405.19;10449042;28;2074;-74
2023/07/19 12:11:55;;;;;;;;;;;;;;;25.67;46.52;95399.88;10453662;28;1935;-74
2023/07/19 12:16:55;;;;;;;;;;;;;;;25.69;46.55;95402.19;10456105;28;2028;-74
2023/07/19 12:21:55;;;;;;;;;;;;;;;25.69;46.60;95384.41;10448901;28;2189;-75
2023/07/19 12:26:55;;;;;;;;;;;;;;;25.69;46.67;95387.06;10452431;28;1956;-74
2023/07/19 12:31:56;;;;;;;;;;;;;;;25.70;46.38;95379.84;10448416;28;1951;-72
2023/07/19 12:36:56;;;;;;;;;;;;;;;25.70;46.51;95378.00;10445205;28;1972;-71
2023/07/19 12:41:57;;;;;;;;;;;;;;;25.70;46.36;95370.03;10448340;28;5069;-71
2023/07/19 12:46:57;;;;;;;;;;;;;;;25.71;46.51;95368.16;10446324;28;2074;-68
2023/07/19 12:51:58;;;;;;;;;;;;;;;25.72;46.35;95361.75;10446829;28;2102;-69
2023/07/19 12:56:59;;;;;;;;;;;;;;;25.74;46.31;95365.66;10443103;28;1913;-68
2023/07/19 13:01:59;;;;;;;;;;;;;;;25.75;46.33;95356.59;10457300;28;1978;-68
2023/07/19 13:06:59;;;;;;;;;;;;;;;25.76;46.50;95360.03;10447171;28;2065;-69
2023/07/19 13:11:59;;;;;;;;;;;;;;;25.77;46.62;95358.94;10446113;28;2021;-69
2023/07/19 13:17:00;;;;;;;;;;;;;;;25.78;46.55;95339.25;10451935;28;2004;-69
2023/07/19 13:22:00;;;;;;;;;;;;;;;25.78;46.62;95347.22;10447469;28;1966;-69
2023/07/19 13:27:03;;;;;;;;;;;;;;;25.79;46.72;95343.47;10429083;28;1945;-69
2023/07/19 13:32:03;;;;;;;;;;;;;;;25.79;46.75;95349.56;10450503;28;2158;-69
2023/07/19 13:37:05;;;;;;;;;;;;;;;25.80;46.81;95316.59;10453292;28;2233;-71
2023/07/19 13:42:06;;;;;;;;;;;;;;;25.82;46.72;95324.25;10443569;28;5115;-70
2023/07/19 13:47:06;;;;;;;;;;;;;;;25.82;46.68;95325.00;10448007;28;1971;-69
2023/07/19 13:52:06;;;;;;;;;;;;;;;25.82;46.64;95324.25;10451595;28;2020;-72
2023/07/19 13:57:07;;;;;;;;;;;;;;;25.82;46.77;95314.41;10445245;28;1927;-72
2023/07/19 14:02:07;;;;;;;;;;;;;;;25.84;46.71;95314.84;10443591;28;2125;-72
2023/07/19 14:07:07;;;;;;;;;;;;;;;25.84;46.87;95304.22;10443069;28;2512;-72
2023/07/19 14:12:08;;;;;;;;;;;;;;;25.86;46.80;95300.50;10447167;28;1940;-71
2023/07/19 14:17:08;;;;;;;;;;;;;;;25.86;46.79;95293.31;10443984;28;1963;-72
2023/07/19 14:22:08;;;;;;;;;;;;;;;25.87;46.79;95278.16;10447491;28;1948;-72
2023/07/19 14:27:09;;;;;;;;;;;;;;;25.88;46.83;95279.72;10428151;28;1925;-72
2023/07/19 14:32:09;;;;;;;;;;;;;;;25.88;46.90;95277.84;10443366;28;1912;-72
2023/07/19 14:37:10;;;;;;;;;;;;;;;25.89;46.90;95270.63;10447545;28;1967;-72
2023/07/19 14:42:11;;;;;;;;;;;;;;;25.90;46.87;95272.22;10441747;28;5164;-71
2023/07/19 14:47:11;;;;;;;;;;;;;;;25.90;46.68;95274.88;10440202;28;2191;-72
2023/07/19 14:52:11;;;;;;;;;;;;;;;25.90;46.99;95266.91;10454403;28;1983;-72
2023/07/19 14:57:12;;;;;;;;;;;;;;;25.90;46.83;95272.22;10451530;28;1977;-72
2023/07/19 15:02:13;;;;;;;;;;;;;;;25.90;46.73;95257.06;10459474;28;1908;-72
2023/07/19 15:07:13;;;;;;;;;;;;;;;25.90;46.83;95253.63;10450447;28;2398;-72
2023/07/19 15:12:14;;;;;;;;;;;;;;;25.91;46.92;95244.53;10465339;28;2236;-72
2023/07/19 15:17:14;;;;;;;;;;;;;;;25.91;46.73;95252.50;10446732;28;1961;-72
2023/07/19 15:22:14;;;;;;;;;;;;;;;25.93;46.84;95237.03;10447810;28;1963;-72
2023/07/19 15:27:15;;;;;;;;;;;;;;;25.93;47.04;95234.38;10446140;28;2090;-71
2023/07/19 15:32:15;;;;;;;;;;;;;;;25.94;46.81;95249.22;10451399;28;2012;-72
2023/07/19 15:37:15;;;;;;;;;;;;;;;25.94;46.81;95233.28;10453676;28;2146;-71
2023/07/19 15:42:15;;;;;;;;;;;;;;;25.94;46.92;95231.44;10435016;28;5625;-75
2023/07/19 15:47:16;;;;;;;;;;;;;;;25.95;46.99;95234.84;10451231;28;2143;-73
2023/07/19 15:52:16;;;;;;;;;;;;;;;25.97;46.98;95229.97;10472902;28;1981;-74
2023/07/19 15:57:16;;;;;;;;;;;;;;;25.96;47.13;95226.56;10456308;28;1922;-75
2023/07/19 16:02:17;;;;;;;;;;;;;;;25.97;47.10;95225.47;10454421;28;2436;-76
2023/07/19 16:07:17;;;;;;;;;;;;;;;25.98;46.99;95221.72;10459649;28;2008;-74
2023/07/19 16:12:17;;;;;;;;;;;;;;;25.99;47.15;95222.50;10451876;28;1894;-73
2023/07/19 16:17:18;;;;;;;;;;;;;;;25.99;47.22;95217.94;10447463;28;1908;-76
2023/07/19 16:22:18;;;;;;;;;;;;;;;26.00;47.11;95210.75;10440959;28;1880;-72
2023/07/19 16:27:19;;;;;;;;;;;;;;;26.01;47.18;95215.75;10441919;28;1896;-67
2023/07/19 16:32:19;;;;;;;;;;;;;;;26.02;47.56;95209.34;10453327;28;2063;-71
2023/07/19 16:37:19;;;;;;;;;;;;;;;26.04;47.54;95209.03;10446378;28;1987;-69
2023/07/19 16:42:20;;;;;;;;;;;;;;;26.06;47.51;95217.44;10448890;28;5149;-69
2023/07/19 16:47:20;;;;;;;;;;;;;;;26.07;47.58;95211.06;10455422;28;1877;-73
2023/07/19 16:52:20;;;;;;;;;;;;;;;26.06;47.40;95210.28;10447855;28;1871;-72
2023/07/19 16:57:20;;;;;;;;;;;;;;;26.08;47.53;95209.97;10431443;28;2293;-72
2023/07/19 17:02:21;;;;;;;;;;;;;;;26.08;47.54;95205.44;10456316;28;2044;-72
2023/07/19 17:07:21;;;;;;;;;;;;;;;26.09;47.44;95206.22;10452714;28;1897;-74
2023/07/19 17:12:21;;;;;;;;;;;;;;;26.09;47.59;95206.97;10448898;28;1937;-70
2023/07/19 17:17:21;;;;;;;;;;;;;;;26.09;47.77;95209.63;10448522;28;1984;-70
2023/07/19 17:22:22;;;;;;;;;;;;;;;26.10;47.72;95218.41;10455643;28;1874;-71
2023/07/19 17:27:22;;;;;;;;;;;;;;;26.11;47.84;95222.63;10450148;28;1873;-72
2023/07/19 17:32:22;;;;;;;;;;;;;;;26.10;47.66;95219.19;10448560;28;1898;-72
2023/07/19 17:37:22;;;;;;;;;;;;;;;26.11;47.91;95226.03;10438615;28;1965;-69
2023/07/19 17:42:23;;;;;;;;;;;;;;;26.13;47.87;95236.38;10449813;28;4993;-72
2023/07/19 17:47:23;;;;;;;;;;;;;;;26.12;47.95;95232.91;10444182;28;1854;-68
2023/07/19 17:52:23;;;;;;;;;;;;;;;26.13;47.87;95233.72;10456480;28;2293;-68
2023/07/19 17:57:24;;;;;;;;;;;;;;;26.12;47.92;95229.47;10444230;28;1913;-67
2023/07/19 18:02:24;;;;;;;;;;;;;;;26.16;47.73;95233.03;10457169;28;1871;-77
2023/07/19 18:07:24;;;;;;;;;;;;;;;26.13;47.84;95239.78;10457074;28;1895;-72
2023/07/19 18:12:24;;;;;;;;;;;;;;;26.13;47.65;95231.81;10452457;28;1897;-71
2023/07/19 18:17:25;;;;;;;;;;;;;;;26.15;47.88;95242.88;10443759;28;2075;-67
2023/07/19 18:22:25;;;;;;;;;;;;;;;26.16;48.08;95249.00;10444805;28;1891;-67
2023/07/19 18:27:25;;;;;;;;;;;;;;;26.17;48.05;95239.94;10449547;28;1953;-67
2023/07/19 18:32:26;;;;;;;;;;;;;;;26.17;48.06;95251.31;10442275;28;1845;-67
2023/07/19 18:37:27;;;;;;;;;;;;;;;26.16;48.06;95251.66;10437001;28;1910;-68
2023/07/19 18:42:27;;;;;;;;;;;;;;;26.17;47.89;95258.53;10456766;28;1881;-67
2023/07/19 18:47:27;;;;;;;;;;;;;;;26.17;48.01;95250.56;10457645;28;2156;-67
2023/07/19 18:52:27;;;;;;;;;;;;;;;26.16;47.87;95246.31;10455730;28;2375;-67
2023/07/19 18:57:29;;;;;;;;;;;;;;;26.16;48.06;95251.66;10462671;28;2079;-67
2023/07/19 19:02:29;;;;;;;;;;;;;;;26.16;47.83;95263.06;10454860;28;1842;-67
2023/07/19 19:07:29;;;;;;;;;;;;;;;26.16;47.79;95273.69;10447488;28;1917;-67
2023/07/19 19:12:30;;;;;;;;;;;;;;;26.16;47.82;95278.22;10451187;28;1954;-67
2023/07/19 19:17:30;;;;;;;;;;;;;;;26.16;47.75;95294.16;10449004;28;1922;-67
2023/07/19 19:22:30;;;;;;;;;;;;;;;26.17;47.72;95303.69;10451956;28;1771;-66
2023/07/19 19:27:31;;;;;;;;;;;;;;;26.16;47.76;95312.75;10453991;28;1933;-67
2023/07/19 19:32:31;;;;;;;;;;;;;;;26.15;47.71;95317.28;10449371;28;1920;-66
2023/07/19 19:37:31;;;;;;;;;;;;;;;26.16;47.58;95328.69;10452380;28;1906;-68
2023/07/19 19:42:32;;;;;;;;;;;;;;;26.17;47.75;95346.19;10455129;28;1886;-67
2023/07/19 19:47:33;;;;;;;;;;;;;;;26.17;47.81;95354.16;10433640;28;2225;-67
2023/07/19 19:52:33;;;;;;;;;;;;;;;26.09;45.75;95345.09;10442017;28;1905;-67
2023/07/19 19:57:33;;;;;;;;;;;;;;;25.91;43.47;95342.78;10447245;28;1906;-67
2023/07/19 20:02:36;;;;;;;;;;;;;;;25.72;42.15;95346.59;10446115;28;1835;-66
2023/07/19 20:07:36;;;;;;;;;;;;;;;25.68;41.59;95372.22;10446691;28;1894;-67
2023/07/19 20:12:36;;;;;;;;;;;;;;;25.66;41.82;95360.34;10449881;28;1860;-68
2023/07/19 20:17:36;;;;;;;;;;;;;;;25.61;41.67;95355.22;10450972;28;1979;-68
2023/07/19 20:22:37;;;;;;;;;;;;;;;25.58;41.57;95364.56;10446377;28;1797;-73
2023/07/19 20:27:37;;;;;;;;;;;;;;;25.59;41.61;95352.88;10447774;28;2103;-67
2023/07/19 20:32:38;;;;;;;;;;;;;;;25.61;41.55;95356.00;10451515;28;1850;-71
2023/07/19 20:37:38;;;;;;;;;;;;;;;25.57;41.30;95360.38;10445129;28;1981;-75
2023/07/19 20:42:41;;;;;;;;;;;;;;;25.48;41.19;95362.25;10455150;28;4993;-72
2023/07/19 20:47:42;;;;;;;;;;;;;;;25.48;41.21;95370.22;10443353;28;1944;-74
2023/07/19 20:52:42;;;;;;;;;;;;;;;25.49;41.34;95368.34;10445753;28;1973;-73
2023/07/19 20:57:43;;;;;;;;;;;;;;;25.41;40.77;95367.25;10443939;28;1942;-73
2023/07/19 21:02:43;;;;;;;;;;;;;;;25.26;40.40;95370.34;10446133;28;1819;-72
2023/07/19 21:07:43;;;;;;;;;;;;;;;25.28;40.40;95370.81;10450111;28;1873;-73
2023/07/19 21:12:44;;;;;;;;;;;;;;;25.27;40.58;95379.84;10449544;28;1877;-73
2023/07/19 21:17:44;;;;;;;;;;;;;;;25.31;40.98;95375.50;10445510;28;1921;-73
2023/07/19 21:22:44;;;;;;;;;;;;;;;25.10;40.47;95385.16;10442908;28;1951;-68
2023/07/19 21:27:45;;;;;;;;;;;;;;;25.13;40.41;95392.50;10440347;28;1806;-75
2023/07/19 21:32:45;;;;;;;;;;;;;;;25.11;40.54;95385.94;10436135;28;1939;-69
2023/07/19 21:37:45;;;;;;;;;;;;;;;25.17;41.06;95387.34;10441550;28;2399;-68
2023/07/19 21:42:45;;;;;;;;;;;;;;;25.21;41.04;95394.38;10444690;28;5129;-68
2023/07/19 21:47:46;;;;;;;;;;;;;;;25.22;41.01;95390.63;10444395;28;1978;-68
2023/07/19 21:52:46;;;;;;;;;;;;;;;25.08;40.34;95405.13;10444211;28;1904;-68
2023/07/19 21:57:46;;;;;;;;;;;;;;;24.80;40.14;95418.63;10440803;28;1905;-69
2023/07/19 22:02:47;;;;;;;;;;;;;;;24.97;40.74;95404.66;10427688;28;1846;-68
2023/07/19 22:07:47;;;;;;;;;;;;;;;25.00;40.64;95410.09;10444182;28;1958;-68
2023/07/19 22:12:47;;;;;;;;;;;;;;;25.00;40.43;95426.00;10449340;28;1873;-68
2023/07/19 22:17:50;;;;;;;;;;;;;;;24.94;40.41;95421.16;10444590;28;1971;-68
2023/07/19 22:22:50;;;;;;;;;;;;;;;24.99;40.44;95432.41;10442559;28;1969;-68
2023/07/19 22:27:50;;;;;;;;;;;;;;;24.87;39.77;95431.44;10462880;28;1918;-69
2023/07/19 22:32:51;;;;;;;;;;;;;;;24.87;39.79;95429.56;10446390;28;1874;-69
2023/07/19 22:37:51;;;;;;;;;;;;;;;24.74;39.73;95454.34;10450165;28;2373;-69
2023/07/19 22:42:51;;;;;;;;;;;;;;;24.66;39.83;95443.66;10442600;28;1965;-69
2023/07/19 22:47:51;;;;;;;;;;;;;;;24.75;40.05;95431.25;10445817;28;1901;-70
2023/07/19 22:52:52;;;;;;;;;;;;;;;24.68;40.15;95430.88;10449565;28;1994;-70
2023/07/19 22:57:52;;;;;;;;;;;;;;;24.70;39.89;95439.31;10443160;28;2070;-70
2023/07/19 23:02:53;;;;;;;;;;;;;;;24.77;40.23;95427.19;10447860;28;1879;-70
2023/07/19 23:07:54;;;;;;;;;;;;;;;24.75;40.10;95434.69;10447250;28;1803;-70
2023/07/19 23:12:54;;;;;;;;;;;;;;;24.57;39.88;95437.53;10445953;28;1972;-70
2023/07/19 23:17:54;;;;;;;;;;;;;;;24.60;40.14;95443.03;10444055;28;1913;-69
2023/07/19 23:22:55;;;;;;;;;;;;;;;24.50;40.06;95450.47;10451765;28;1893;-69
2023/07/19 23:27:59;;;;;;;;;;;;;;;24.48;39.95;95456.06;10458354;28;1919;-69
2023/07/19 23:33:00;;;;;;;;;;;;;;;24.43;40.07;95458.06;10464461;28;2291;-68
2023/07/19 23:38:00;;;;;;;;;;;;;;;24.33;40.47;95463.63;10456453;28;1984;-69
2023/07/19 23:43:01;;;;;;;;;;;;;;;24.28;40.38;95466.41;10451055;28;5041;-69
2023/07/19 23:48:01;;;;;;;;;;;;;;;24.23;40.58;95476.03;10448345;28;1900;-68
2023/07/19 23:53:05;;;;;;;;;;;;;;;23.95;40.86;95484.38;10434407;28;1830;-69
2023/07/19 23:58:06;;;;;;;;;;;;;;;24.08;40.89;95480.94;10451092;28;1973;-68
